sensor_id;sensor_type;location;lat;lon;timestamp;pressure;altitude;pressure_sealevel;temperature;humidity
63447;BME280;49577;49.872;6.190;2023-04-28T00:00:53;99147.96;;;10.67;80.23
63447;BME280;49577;49.872;6.190;2023-04-28T00:03:18;99140.83;;;10.67;80.04
63447;BME280;49577;49.872;6.190;2023-04-28T00:05:44;99137.23;;;10.66;79.89
63447;BME280;49577;49.872;6.190;2023-04-28T00:08:09;99138.96;;;10.66;80.28
63447;BME280;49577;49.872;6.190;2023-04-28T00:10:34;99141.04;;;10.69;80.45
63447;BME280;49577;49.872;6.190;2023-04-28T00:13:00;99149.35;;;10.72;80.43
63447;BME280;49577;49.872;6.190;2023-04-28T00:15:25;99148.32;;;10.74;80.37
63447;BME280;49577;49.872;6.190;2023-04-28T00:17:50;99148.27;;;10.75;80.32
63447;BME280;49577;49.872;6.190;2023-04-28T00:20:16;99146.41;;;10.74;80.38
63447;BME280;49577;49.872;6.190;2023-04-28T00:22:42;99145.86;;;10.74;80.44
63447;BME280;49577;49.872;6.190;2023-04-28T00:25:07;99148.53;;;10.76;80.53
63447;BME280;49577;49.872;6.190;2023-04-28T00:27:33;99147.38;;;10.78;80.50
63447;BME280;49577;49.872;6.190;2023-04-28T00:29:59;99149.39;;;10.79;80.73
63447;BME280;49577;49.872;6.190;2023-04-28T00:32:25;99145.39;;;10.78;80.51
63447;BME280;49577;49.872;6.190;2023-04-28T00:34:50;99139.20;;;10.77;80.48
63447;BME280;49577;49.872;6.190;2023-04-28T00:37:15;99127.91;;;10.76;80.63
63447;BME280;49577;49.872;6.190;2023-04-28T00:39:41;99120.80;;;10.75;80.57
63447;BME280;49577;49.872;6.190;2023-04-28T00:42:11;99115.25;;;10.75;80.58
63447;BME280;49577;49.872;6.190;2023-04-28T00:44:36;99111.58;;;10.75;80.79
63447;BME280;49577;49.872;6.190;2023-04-28T00:47:02;99106.29;;;10.76;80.73
63447;BME280;49577;49.872;6.190;2023-04-28T00:49:27;99100.27;;;10.77;80.94
63447;BME280;49577;49.872;6.190;2023-04-28T00:51:52;99100.00;;;10.76;81.10
63447;BME280;49577;49.872;6.190;2023-04-28T00:54:18;99105.48;;;10.75;81.10
63447;BME280;49577;49.872;6.190;2023-04-28T00:56:43;99107.25;;;10.72;81.04
63447;BME280;49577;49.872;6.190;2023-04-28T00:59:09;99105.93;;;10.71;81.24
63447;BME280;49577;49.872;6.190;2023-04-28T01:01:34;99105.52;;;10.69;81.36
63447;BME280;49577;49.872;6.190;2023-04-28T01:04:00;99104.73;;;10.68;81.46
63447;BME280;49577;49.872;6.190;2023-04-28T01:06:27;99101.75;;;10.69;81.53
63447;BME280;49577;49.872;6.190;2023-04-28T01:08:54;99095.69;;;10.68;81.42
63447;BME280;49577;49.872;6.190;2023-04-28T01:11:20;99092.31;;;10.69;81.46
63447;BME280;49577;49.872;6.190;2023-04-28T01:13:45;99086.85;;;10.69;81.38
63447;BME280;49577;49.872;6.190;2023-04-28T01:16:10;99082.05;;;10.68;81.23
63447;BME280;49577;49.872;6.190;2023-04-28T01:18:35;99075.85;;;10.67;81.13
63447;BME280;49577;49.872;6.190;2023-04-28T01:21:01;99073.23;;;10.67;81.29
63447;BME280;49577;49.872;6.190;2023-04-28T01:23:28;99074.04;;;10.68;81.35
63447;BME280;49577;49.872;6.190;2023-04-28T01:25:54;99075.78;;;10.68;81.39
63447;BME280;49577;49.872;6.190;2023-04-28T01:28:19;99078.80;;;10.69;81.51
63447;BME280;49577;49.872;6.190;2023-04-28T01:30:44;99081.30;;;10.69;81.55
63447;BME280;49577;49.872;6.190;2023-04-28T01:33:10;99080.23;;;10.69;81.64
63447;BME280;49577;49.872;6.190;2023-04-28T01:35:35;99073.18;;;10.70;81.62
63447;BME280;49577;49.872;6.190;2023-04-28T01:38:00;99075.27;;;10.70;81.61
63447;BME280;49577;49.872;6.190;2023-04-28T01:40:26;99077.14;;;10.70;81.90
63447;BME280;49577;49.872;6.190;2023-04-28T01:42:51;99080.22;;;10.71;81.97
63447;BME280;49577;49.872;6.190;2023-04-28T01:45:17;99066.77;;;10.71;81.97
63447;BME280;49577;49.872;6.190;2023-04-28T01:47:42;99058.57;;;10.71;81.93
63447;BME280;49577;49.872;6.190;2023-04-28T01:50:07;99054.91;;;10.71;81.66
63447;BME280;49577;49.872;6.190;2023-04-28T01:52:33;99054.02;;;10.71;81.60
63447;BME280;49577;49.872;6.190;2023-04-28T01:54:58;99056.64;;;10.71;81.64
63447;BME280;49577;49.872;6.190;2023-04-28T01:57:24;99063.39;;;10.72;81.71
63447;BME280;49577;49.872;6.190;2023-04-28T01:59:49;99062.30;;;10.73;81.59
63447;BME280;49577;49.872;6.190;2023-04-28T02:02:14;99057.41;;;10.73;81.82
63447;BME280;49577;49.872;6.190;2023-04-28T02:04:40;99053.08;;;10.73;81.79
63447;BME280;49577;49.872;6.190;2023-04-28T02:07:05;99054.55;;;10.71;81.67
63447;BME280;49577;49.872;6.190;2023-04-28T02:09:32;99049.88;;;10.70;81.81
63447;BME280;49577;49.872;6.190;2023-04-28T02:11:57;99059.37;;;10.70;81.88
63447;BME280;49577;49.872;6.190;2023-04-28T02:14:24;99052.36;;;10.68;81.73
63447;BME280;49577;49.872;6.190;2023-04-28T02:16:50;99041.96;;;10.67;81.97
63447;BME280;49577;49.872;6.190;2023-04-28T02:19:15;99039.65;;;10.67;81.99
63447;BME280;49577;49.872;6.190;2023-04-28T02:21:41;99037.54;;;10.68;81.94
63447;BME280;49577;49.872;6.190;2023-04-28T02:24:07;99037.27;;;10.69;81.85
63447;BME280;49577;49.872;6.190;2023-04-28T02:26:33;99031.46;;;10.67;81.83
63447;BME280;49577;49.872;6.190;2023-04-28T02:28:58;99026.44;;;10.67;81.84
63447;BME280;49577;49.872;6.190;2023-04-28T02:31:24;99027.38;;;10.66;81.77
63447;BME280;49577;49.872;6.190;2023-04-28T02:33:49;99024.88;;;10.64;81.82
63447;BME280;49577;49.872;6.190;2023-04-28T02:36:14;99023.25;;;10.65;82.17
63447;BME280;49577;49.872;6.190;2023-04-28T02:38:40;99024.52;;;10.64;82.39
63447;BME280;49577;49.872;6.190;2023-04-28T02:41:06;99017.06;;;10.61;82.36
63447;BME280;49577;49.872;6.190;2023-04-28T02:43:34;99018.98;;;10.58;82.52
63447;BME280;49577;49.872;6.190;2023-04-28T02:46:00;99027.55;;;10.58;82.88
63447;BME280;49577;49.872;6.190;2023-04-28T02:48:26;99029.78;;;10.59;83.01
63447;BME280;49577;49.872;6.190;2023-04-28T02:50:51;99029.86;;;10.60;83.19
63447;BME280;49577;49.872;6.190;2023-04-28T02:53:21;99029.97;;;10.61;83.03
63447;BME280;49577;49.872;6.190;2023-04-28T02:55:47;99025.94;;;10.59;82.82
63447;BME280;49577;49.872;6.190;2023-04-28T02:58:12;99025.17;;;10.55;82.83
63447;BME280;49577;49.872;6.190;2023-04-28T03:00:38;99026.94;;;10.52;83.03
63447;BME280;49577;49.872;6.190;2023-04-28T03:03:03;99030.13;;;10.52;83.30
63447;BME280;49577;49.872;6.190;2023-04-28T03:05:29;99030.88;;;10.56;83.25
63447;BME280;49577;49.872;6.190;2023-04-28T03:07:54;99033.17;;;10.58;83.09
63447;BME280;49577;49.872;6.190;2023-04-28T03:10:19;99032.06;;;10.59;83.15
63447;BME280;49577;49.872;6.190;2023-04-28T03:12:45;99026.54;;;10.60;83.33
63447;BME280;49577;49.872;6.190;2023-04-28T03:15:10;99010.89;;;10.59;83.08
63447;BME280;49577;49.872;6.190;2023-04-28T03:17:36;98996.82;;;10.58;83.46
63447;BME280;49577;49.872;6.190;2023-04-28T03:20:04;98987.09;;;10.57;83.32
63447;BME280;49577;49.872;6.190;2023-04-28T03:22:30;98989.35;;;10.55;83.24
63447;BME280;49577;49.872;6.190;2023-04-28T03:24:55;98991.02;;;10.54;83.38
63447;BME280;49577;49.872;6.190;2023-04-28T03:27:21;98992.65;;;10.53;83.70
63447;BME280;49577;49.872;6.190;2023-04-28T03:29:46;98992.94;;;10.54;83.92
63447;BME280;49577;49.872;6.190;2023-04-28T03:32:12;98980.02;;;10.54;83.86
63447;BME280;49577;49.872;6.190;2023-04-28T03:34:37;98986.08;;;10.52;84.04
63447;BME280;49577;49.872;6.190;2023-04-28T03:37:02;98978.89;;;10.50;84.23
63447;BME280;49577;49.872;6.190;2023-04-28T03:39:27;98973.80;;;10.51;84.24
63447;BME280;49577;49.872;6.190;2023-04-28T03:41:53;98985.66;;;10.51;84.35
63447;BME280;49577;49.872;6.190;2023-04-28T03:44:18;98986.08;;;10.52;84.46
63447;BME280;49577;49.872;6.190;2023-04-28T03:46:43;98973.86;;;10.55;84.47
63447;BME280;49577;49.872;6.190;2023-04-28T03:49:08;98974.32;;;10.55;84.48
63447;BME280;49577;49.872;6.190;2023-04-28T03:51:34;98977.36;;;10.55;84.31
63447;BME280;49577;49.872;6.190;2023-04-28T03:53:59;98975.58;;;10.52;84.53
63447;BME280;49577;49.872;6.190;2023-04-28T03:56:25;98973.77;;;10.51;84.62
63447;BME280;49577;49.872;6.190;2023-04-28T03:58:50;98973.99;;;10.51;84.87
63447;BME280;49577;49.872;6.190;2023-04-28T04:01:15;98969.63;;;10.53;85.21
63447;BME280;49577;49.872;6.190;2023-04-28T04:03:41;98974.02;;;10.52;84.96
63447;BME280;49577;49.872;6.190;2023-04-28T04:06:07;98980.13;;;10.52;85.36
63447;BME280;49577;49.872;6.190;2023-04-28T04:08:32;98975.73;;;10.55;85.29
63447;BME280;49577;49.872;6.190;2023-04-28T04:10:57;98962.52;;;10.56;85.14
63447;BME280;49577;49.872;6.190;2023-04-28T04:13:23;98974.64;;;10.58;85.22
63447;BME280;49577;49.872;6.190;2023-04-28T04:15:48;98972.91;;;10.60;85.20
63447;BME280;49577;49.872;6.190;2023-04-28T04:18:14;98979.30;;;10.59;84.68
63447;BME280;49577;49.872;6.190;2023-04-28T04:20:40;98974.11;;;10.58;84.81
63447;BME280;49577;49.872;6.190;2023-04-28T04:23:05;98973.98;;;10.57;84.89
63447;BME280;49577;49.872;6.190;2023-04-28T04:25:30;98978.69;;;10.58;85.07
63447;BME280;49577;49.872;6.190;2023-04-28T04:27:58;98977.86;;;10.57;85.09
63447;BME280;49577;49.872;6.190;2023-04-28T04:30:23;98982.22;;;10.55;85.25
63447;BME280;49577;49.872;6.190;2023-04-28T04:32:48;98985.61;;;10.54;85.36
63447;BME280;49577;49.872;6.190;2023-04-28T04:35:14;98990.88;;;10.54;85.47
63447;BME280;49577;49.872;6.190;2023-04-28T04:37:39;98996.25;;;10.54;85.68
63447;BME280;49577;49.872;6.190;2023-04-28T04:40:05;99000.15;;;10.58;86.06
63447;BME280;49577;49.872;6.190;2023-04-28T04:42:31;99001.96;;;10.59;85.91
63447;BME280;49577;49.872;6.190;2023-04-28T04:44:57;99002.38;;;10.58;85.93
63447;BME280;49577;49.872;6.190;2023-04-28T04:47:22;99001.41;;;10.57;85.90
63447;BME280;49577;49.872;6.190;2023-04-28T04:49:48;99003.52;;;10.55;85.84
63447;BME280;49577;49.872;6.190;2023-04-28T04:52:16;98996.27;;;10.54;85.91
63447;BME280;49577;49.872;6.190;2023-04-28T04:54:43;98990.05;;;10.55;86.39
63447;BME280;49577;49.872;6.190;2023-04-28T04:57:09;98991.98;;;10.57;86.41
63447;BME280;49577;49.872;6.190;2023-04-28T04:59:34;98993.61;;;10.61;86.64
63447;BME280;49577;49.872;6.190;2023-04-28T05:01:59;98989.57;;;10.67;86.88
63447;BME280;49577;49.872;6.190;2023-04-28T05:04:25;98989.44;;;10.66;86.37
63447;BME280;49577;49.872;6.190;2023-04-28T05:06:50;98988.30;;;10.65;86.28
63447;BME280;49577;49.872;6.190;2023-04-28T05:09:15;98991.38;;;10.64;86.34
63447;BME280;49577;49.872;6.190;2023-04-28T05:11:41;99002.02;;;10.63;86.45
63447;BME280;49577;49.872;6.190;2023-04-28T05:14:06;99002.05;;;10.63;86.56
63447;BME280;49577;49.872;6.190;2023-04-28T05:16:31;98992.29;;;10.63;86.61
63447;BME280;49577;49.872;6.190;2023-04-28T05:18:57;98984.34;;;10.61;86.70
63447;BME280;49577;49.872;6.190;2023-04-28T05:21:22;98990.08;;;10.62;86.74
63447;BME280;49577;49.872;6.190;2023-04-28T05:23:47;98993.52;;;10.63;86.84
63447;BME280;49577;49.872;6.190;2023-04-28T05:26:13;98995.80;;;10.65;87.10
63447;BME280;49577;49.872;6.190;2023-04-28T05:28:39;98992.09;;;10.70;87.47
63447;BME280;49577;49.872;6.190;2023-04-28T05:31:05;98986.84;;;10.75;87.19
63447;BME280;49577;49.872;6.190;2023-04-28T05:33:31;98987.86;;;10.78;86.97
63447;BME280;49577;49.872;6.190;2023-04-28T05:35:56;98997.52;;;10.79;87.01
63447;BME280;49577;49.872;6.190;2023-04-28T05:38:22;99002.67;;;10.81;87.04
63447;BME280;49577;49.872;6.190;2023-04-28T05:40:47;98998.98;;;10.83;87.20
63447;BME280;49577;49.872;6.190;2023-04-28T05:43:12;98999.05;;;10.85;87.08
63447;BME280;49577;49.872;6.190;2023-04-28T05:45:38;99007.39;;;10.86;87.09
63447;BME280;49577;49.872;6.190;2023-04-28T05:48:04;99009.10;;;10.88;87.47
63447;BME280;49577;49.872;6.190;2023-04-28T05:50:29;99003.94;;;10.92;87.40
63447;BME280;49577;49.872;6.190;2023-04-28T05:52:55;98996.86;;;10.94;87.07
63447;BME280;49577;49.872;6.190;2023-04-28T05:55:21;99001.02;;;10.94;87.31
63447;BME280;49577;49.872;6.190;2023-04-28T05:57:46;99008.23;;;10.98;87.32
63447;BME280;49577;49.872;6.190;2023-04-28T06:00:12;99013.13;;;11.00;87.43
63447;BME280;49577;49.872;6.190;2023-04-28T06:02:38;99004.85;;;11.08;87.85
63447;BME280;49577;49.872;6.190;2023-04-28T06:05:03;98999.91;;;11.18;87.72
63447;BME280;49577;49.872;6.190;2023-04-28T06:07:29;99000.91;;;11.23;87.47
63447;BME280;49577;49.872;6.190;2023-04-28T06:09:54;99007.95;;;11.25;87.14
63447;BME280;49577;49.872;6.190;2023-04-28T06:12:19;99005.60;;;11.26;87.25
63447;BME280;49577;49.872;6.190;2023-04-28T06:14:45;98998.52;;;11.27;87.10
63447;BME280;49577;49.872;6.190;2023-04-28T06:17:10;98992.73;;;11.32;87.27
63447;BME280;49577;49.872;6.190;2023-04-28T06:19:35;98994.54;;;11.38;87.46
63447;BME280;49577;49.872;6.190;2023-04-28T06:22:01;98999.52;;;11.42;87.43
63447;BME280;49577;49.872;6.190;2023-04-28T06:24:26;98999.09;;;11.43;87.17
63447;BME280;49577;49.872;6.190;2023-04-28T06:26:51;98998.27;;;11.47;87.36
63447;BME280;49577;49.872;6.190;2023-04-28T06:29:17;98996.23;;;11.53;87.33
63447;BME280;49577;49.872;6.190;2023-04-28T06:31:42;98995.43;;;11.59;87.28
63447;BME280;49577;49.872;6.190;2023-04-28T06:34:07;98999.05;;;11.67;87.26
63447;BME280;49577;49.872;6.190;2023-04-28T06:36:33;99001.85;;;11.73;87.27
63447;BME280;49577;49.872;6.190;2023-04-28T06:38:58;99007.25;;;11.78;87.21
63447;BME280;49577;49.872;6.190;2023-04-28T06:41:23;99009.06;;;11.82;87.04
63447;BME280;49577;49.872;6.190;2023-04-28T06:43:49;99002.31;;;11.88;87.12
63447;BME280;49577;49.872;6.190;2023-04-28T06:46:15;99001.70;;;11.94;87.04
63447;BME280;49577;49.872;6.190;2023-04-28T06:48:40;99006.98;;;12.00;86.92
63447;BME280;49577;49.872;6.190;2023-04-28T06:51:05;99005.45;;;12.08;87.02
63447;BME280;49577;49.872;6.190;2023-04-28T06:53:31;99002.37;;;12.14;86.64
63447;BME280;49577;49.872;6.190;2023-04-28T06:55:56;99000.10;;;12.21;86.80
63447;BME280;49577;49.872;6.190;2023-04-28T06:58:22;99002.86;;;12.26;86.64
63447;BME280;49577;49.872;6.190;2023-04-28T07:00:47;99005.95;;;12.31;86.43
63447;BME280;49577;49.872;6.190;2023-04-28T07:03:12;99009.16;;;12.34;86.63
63447;BME280;49577;49.872;6.190;2023-04-28T07:05:38;99013.51;;;12.44;86.64
63447;BME280;49577;49.872;6.190;2023-04-28T07:08:05;99013.98;;;12.53;86.77
63447;BME280;49577;49.872;6.190;2023-04-28T07:10:30;99011.83;;;12.60;86.30
63447;BME280;49577;49.872;6.190;2023-04-28T07:12:56;99014.18;;;12.68;86.37
63447;BME280;49577;49.872;6.190;2023-04-28T07:15:21;99012.40;;;12.73;86.37
63447;BME280;49577;49.872;6.190;2023-04-28T07:17:48;99009.34;;;12.78;86.47
63447;BME280;49577;49.872;6.190;2023-04-28T07:20:13;99011.15;;;12.84;86.48
63447;BME280;49577;49.872;6.190;2023-04-28T07:22:39;99013.74;;;12.88;86.32
63447;BME280;49577;49.872;6.190;2023-04-28T07:25:04;99015.79;;;12.94;86.04
63447;BME280;49577;49.872;6.190;2023-04-28T07:27:30;99017.13;;;13.05;86.06
63447;BME280;49577;49.872;6.190;2023-04-28T07:29:56;99016.40;;;13.14;85.67
63447;BME280;49577;49.872;6.190;2023-04-28T07:32:21;99027.39;;;13.17;85.74
63447;BME280;49577;49.872;6.190;2023-04-28T07:34:46;99034.67;;;13.15;85.65
63447;BME280;49577;49.872;6.190;2023-04-28T07:37:12;99033.92;;;13.14;85.74
63447;BME280;49577;49.872;6.190;2023-04-28T07:39:37;99029.13;;;13.10;85.57
63447;BME280;49577;49.872;6.190;2023-04-28T07:42:04;99026.15;;;13.08;85.67
63447;BME280;49577;49.872;6.190;2023-04-28T07:44:30;99030.10;;;13.07;85.65
63447;BME280;49577;49.872;6.190;2023-04-28T07:46:55;99030.41;;;13.10;85.54
63447;BME280;49577;49.872;6.190;2023-04-28T07:49:21;99026.63;;;13.15;85.37
63447;BME280;49577;49.872;6.190;2023-04-28T07:51:46;99027.31;;;13.26;85.27
63447;BME280;49577;49.872;6.190;2023-04-28T07:54:11;99016.50;;;13.55;85.38
63447;BME280;49577;49.872;6.190;2023-04-28T07:56:37;99018.38;;;14.35;85.07
63447;BME280;49577;49.872;6.190;2023-04-28T07:59:02;99022.55;;;15.26;82.78
63447;BME280;49577;49.872;6.190;2023-04-28T08:01:27;99025.34;;;15.61;81.02
63447;BME280;49577;49.872;6.190;2023-04-28T08:03:53;99022.41;;;15.83;80.07
63447;BME280;49577;49.872;6.190;2023-04-28T08:06:18;99023.77;;;16.01;79.33
63447;BME280;49577;49.872;6.190;2023-04-28T08:08:43;99023.94;;;16.10;78.56
63447;BME280;49577;49.872;6.190;2023-04-28T08:11:09;99024.05;;;16.14;78.06
63447;BME280;49577;49.872;6.190;2023-04-28T08:13:35;99024.88;;;16.22;77.65
63447;BME280;49577;49.872;6.190;2023-04-28T08:16:00;99025.95;;;16.42;77.60
63447;BME280;49577;49.872;6.190;2023-04-28T08:18:27;99016.77;;;16.77;76.65
63447;BME280;49577;49.872;6.190;2023-04-28T08:20:53;99015.70;;;17.24;75.15
63447;BME280;49577;49.872;6.190;2023-04-28T08:23:18;99017.49;;;17.97;73.90
63447;BME280;49577;49.872;6.190;2023-04-28T08:25:45;99018.41;;;18.61;72.33
63447;BME280;49577;49.872;6.190;2023-04-28T08:28:12;99018.42;;;18.82;71.33
63447;BME280;49577;49.872;6.190;2023-04-28T08:30:37;99017.02;;;18.91;70.15
63447;BME280;49577;49.872;6.190;2023-04-28T08:33:03;99012.55;;;19.20;69.07
63447;BME280;49577;49.872;6.190;2023-04-28T08:35:29;99008.42;;;19.84;67.63
63447;BME280;49577;49.872;6.190;2023-04-28T08:37:54;99011.92;;;20.97;65.72
63447;BME280;49577;49.872;6.190;2023-04-28T08:40:19;99010.15;;;21.95;63.44
63447;BME280;49577;49.872;6.190;2023-04-28T08:42:46;99011.70;;;22.20;61.61
63447;BME280;49577;49.872;6.190;2023-04-28T08:45:14;99011.30;;;21.92;60.83
63447;BME280;49577;49.872;6.190;2023-04-28T08:47:40;99015.91;;;21.53;61.16
63447;BME280;49577;49.872;6.190;2023-04-28T08:50:10;99013.79;;;21.21;61.92
63447;BME280;49577;49.872;6.190;2023-04-28T08:52:37;99012.52;;;20.93;62.15
63447;BME280;49577;49.872;6.190;2023-04-28T08:55:07;99014.71;;;20.62;62.51
63447;BME280;49577;49.872;6.190;2023-04-28T08:58:03;99018.45;;;20.32;63.92
63447;BME280;49577;49.872;6.190;2023-04-28T09:00:29;99024.77;;;19.72;63.89
63447;BME280;49577;49.872;6.190;2023-04-28T09:02:54;99024.07;;;19.31;65.12
63447;BME280;49577;49.872;6.190;2023-04-28T09:05:19;99025.75;;;19.01;66.03
63447;BME280;49577;49.872;6.190;2023-04-28T09:07:45;99026.39;;;18.88;67.10
63447;BME280;49577;49.872;6.190;2023-04-28T09:10:20;99028.19;;;18.88;67.64
63447;BME280;49577;49.872;6.190;2023-04-28T09:12:46;99027.75;;;18.87;68.23
63447;BME280;49577;49.872;6.190;2023-04-28T09:17:56;99028.42;;;19.11;68.61
63447;BME280;49577;49.872;6.190;2023-04-28T09:20:24;99031.14;;;19.34;68.42
63447;BME280;49577;49.872;6.190;2023-04-28T09:22:50;99028.75;;;19.71;68.06
63447;BME280;49577;49.872;6.190;2023-04-28T09:25:17;99028.73;;;19.86;66.84
63447;BME280;49577;49.872;6.190;2023-04-28T09:27:44;99031.14;;;19.82;66.34
63447;BME280;49577;49.872;6.190;2023-04-28T09:30:10;99032.98;;;19.80;66.43
63447;BME280;49577;49.872;6.190;2023-04-28T09:32:35;99029.31;;;20.09;66.79
63447;BME280;49577;49.872;6.190;2023-04-28T09:35:01;99030.36;;;20.83;65.42
63447;BME280;49577;49.872;6.190;2023-04-28T09:37:29;99029.16;;;21.23;63.91
63447;BME280;49577;49.872;6.190;2023-04-28T09:39:55;99019.61;;;21.83;62.78
63447;BME280;49577;49.872;6.190;2023-04-28T09:44:59;99011.27;;;23.98;58.27
63447;BME280;49577;49.872;6.190;2023-04-28T09:47:26;99012.75;;;24.70;55.92
63447;BME280;49577;49.872;6.190;2023-04-28T09:49:55;99008.25;;;25.44;54.47
63447;BME280;49577;49.872;6.190;2023-04-28T09:52:24;99007.30;;;25.56;53.71
63447;BME280;49577;49.872;6.190;2023-04-28T09:54:51;99003.39;;;25.48;53.66
63447;BME280;49577;49.872;6.190;2023-04-28T09:57:17;98997.80;;;25.73;52.94
63447;BME280;49577;49.872;6.190;2023-04-28T09:59:46;98991.33;;;25.99;51.50
63447;BME280;49577;49.872;6.190;2023-04-28T10:02:14;98990.29;;;26.19;50.72
63447;BME280;49577;49.872;6.190;2023-04-28T10:04:41;98987.17;;;26.12;50.25
63447;BME280;49577;49.872;6.190;2023-04-28T10:07:09;98982.67;;;26.44;50.14
63447;BME280;49577;49.872;6.190;2023-04-28T10:09:35;98981.51;;;26.75;48.86
63447;BME280;49577;49.872;6.190;2023-04-28T10:12:01;98983.52;;;26.64;48.60
63447;BME280;49577;49.872;6.190;2023-04-28T10:14:29;98982.54;;;26.68;48.58
63447;BME280;49577;49.872;6.190;2023-04-28T10:16:57;98978.45;;;26.93;47.84
63447;BME280;49577;49.872;6.190;2023-04-28T10:19:23;98976.16;;;26.59;47.28
63447;BME280;49577;49.872;6.190;2023-04-28T10:24:28;98977.17;;;25.11;49.24
63447;BME280;49577;49.872;6.190;2023-04-28T10:27:06;98977.46;;;24.47;50.67
63447;BME280;49577;49.872;6.190;2023-04-28T10:29:33;98975.89;;;24.11;52.22
63447;BME280;49577;49.872;6.190;2023-04-28T10:32:19;98971.34;;;23.91;52.42
63447;BME280;49577;49.872;6.190;2023-04-28T10:34:45;98972.62;;;23.71;53.50
63447;BME280;49577;49.872;6.190;2023-04-28T10:37:11;98969.23;;;23.64;53.50
63447;BME280;49577;49.872;6.190;2023-04-28T10:39:39;98969.70;;;23.45;53.80
63447;BME280;49577;49.872;6.190;2023-04-28T10:45:08;98971.77;;;23.05;53.68
63447;BME280;49577;49.872;6.190;2023-04-28T10:47:59;98969.09;;;22.90;53.55
63447;BME280;49577;49.872;6.190;2023-04-28T10:50:28;98973.48;;;22.89;53.72
63447;BME280;49577;49.872;6.190;2023-04-28T10:52:55;98971.84;;;22.79;54.16
63447;BME280;49577;49.872;6.190;2023-04-28T10:55:31;98967.26;;;22.93;54.91
63447;BME280;49577;49.872;6.190;2023-04-28T11:00:47;98960.61;;;22.62;55.87
63447;BME280;49577;49.872;6.190;2023-04-28T11:06:20;98965.13;;;21.97;57.31
63447;BME280;49577;49.872;6.190;2023-04-28T11:08:47;98965.59;;;21.61;58.30
63447;BME280;49577;49.872;6.190;2023-04-28T11:11:18;98969.76;;;21.33;59.75
63447;BME280;49577;49.872;6.190;2023-04-28T11:13:44;98966.28;;;21.08;60.44
63447;BME280;49577;49.872;6.190;2023-04-28T11:16:14;98969.71;;;20.93;61.39
63447;BME280;49577;49.872;6.190;2023-04-28T11:18:54;98969.32;;;20.94;61.97
63447;BME280;49577;49.872;6.190;2023-04-28T11:21:22;98970.29;;;21.15;62.07
63447;BME280;49577;49.872;6.190;2023-04-28T11:23:48;98970.66;;;21.66;61.34
63447;BME280;49577;49.872;6.190;2023-04-28T11:26:13;98965.73;;;22.06;59.92
63447;BME280;49577;49.872;6.190;2023-04-28T11:28:50;98966.13;;;22.22;59.82
63447;BME280;49577;49.872;6.190;2023-04-28T11:31:16;98969.83;;;22.22;59.03
63447;BME280;49577;49.872;6.190;2023-04-28T11:34:06;98967.14;;;22.15;59.50
63447;BME280;49577;49.872;6.190;2023-04-28T11:36:37;98969.42;;;22.02;59.35
63447;BME280;49577;49.872;6.190;2023-04-28T11:39:04;98976.70;;;21.79;59.48
63447;BME280;49577;49.872;6.190;2023-04-28T11:41:30;98974.75;;;21.62;60.07
63447;BME280;49577;49.872;6.190;2023-04-28T11:43:56;98972.52;;;21.83;60.80
63447;BME280;49577;49.872;6.190;2023-04-28T11:46:23;98965.64;;;22.39;60.93
63447;BME280;49577;49.872;6.190;2023-04-28T11:49:02;98965.49;;;23.01;59.39
63447;BME280;49577;49.872;6.190;2023-04-28T11:51:33;98962.95;;;23.56;58.66
63447;BME280;49577;49.872;6.190;2023-04-28T11:53:59;98960.59;;;23.88;56.36
63447;BME280;49577;49.872;6.190;2023-04-28T11:56:26;98959.27;;;24.06;55.12
63447;BME280;49577;49.872;6.190;2023-04-28T11:59:01;98953.69;;;24.09;54.45
63447;BME280;49577;49.872;6.190;2023-04-28T12:01:29;98953.45;;;24.20;54.17
63447;BME280;49577;49.872;6.190;2023-04-28T12:03:55;98954.09;;;24.17;53.54
63447;BME280;49577;49.872;6.190;2023-04-28T12:06:20;98953.55;;;24.05;53.61
63447;BME280;49577;49.872;6.190;2023-04-28T12:08:46;98953.77;;;24.08;53.12
63447;BME280;49577;49.872;6.190;2023-04-28T12:11:12;98950.86;;;24.10;52.81
63447;BME280;49577;49.872;6.190;2023-04-28T12:13:38;98952.27;;;24.04;52.91
63447;BME280;49577;49.872;6.190;2023-04-28T12:16:05;98953.05;;;23.81;53.38
63447;BME280;49577;49.872;6.190;2023-04-28T12:18:32;98954.52;;;23.35;54.06
63447;BME280;49577;49.872;6.190;2023-04-28T12:20:57;98952.52;;;22.77;55.69
63447;BME280;49577;49.872;6.190;2023-04-28T12:25:56;98958.20;;;22.21;58.30
63447;BME280;49577;49.872;6.190;2023-04-28T12:28:22;98957.27;;;22.02;59.13
63447;BME280;49577;49.872;6.190;2023-04-28T12:30:47;98958.23;;;21.85;59.90
63447;BME280;49577;49.872;6.190;2023-04-28T12:33:23;98954.23;;;21.71;60.37
63447;BME280;49577;49.872;6.190;2023-04-28T12:35:49;98952.59;;;21.61;61.28
63447;BME280;49577;49.872;6.190;2023-04-28T12:38:15;98957.09;;;21.49;61.06
63447;BME280;49577;49.872;6.190;2023-04-28T12:40:41;98957.58;;;21.35;61.67
63447;BME280;49577;49.872;6.190;2023-04-28T12:43:06;98952.55;;;21.31;61.97
63447;BME280;49577;49.872;6.190;2023-04-28T12:45:32;98950.91;;;21.30;61.65
63447;BME280;49577;49.872;6.190;2023-04-28T12:47:57;98947.35;;;21.44;61.87
63447;BME280;49577;49.872;6.190;2023-04-28T12:50:23;98949.55;;;21.81;62.21
63447;BME280;49577;49.872;6.190;2023-04-28T12:52:49;98943.70;;;22.14;61.69
63447;BME280;49577;49.872;6.190;2023-04-28T12:55:15;98947.90;;;22.06;59.51
63447;BME280;49577;49.872;6.190;2023-04-28T12:57:40;98945.39;;;22.06;59.83
63447;BME280;49577;49.872;6.190;2023-04-28T13:00:06;98944.19;;;22.29;58.52
63447;BME280;49577;49.872;6.190;2023-04-28T13:02:32;98944.20;;;22.53;57.60
63447;BME280;49577;49.872;6.190;2023-04-28T13:04:58;98945.75;;;22.70;56.34
63447;BME280;49577;49.872;6.190;2023-04-28T13:07:23;98949.76;;;22.61;55.79
63447;BME280;49577;49.872;6.190;2023-04-28T13:09:49;98945.33;;;22.62;54.99
63447;BME280;49577;49.872;6.190;2023-04-28T13:12:14;98955.16;;;22.53;54.45
63447;BME280;49577;49.872;6.190;2023-04-28T13:14:39;98952.56;;;22.36;54.66